sensor_id;sensor_type;location;lat;lon;timestamp;temperature;humidity
3954;DHT22;1991;48.682;9.030;2024-01-30T00:01:11;3.20;99.90
3954;DHT22;1991;48.682;9.030;2024-01-30T00:03:36;3.20;99.90
3954;DHT22;1991;48.682;9.030;2024-01-30T00:06:03;3.10;99.90
3954;DHT22;1991;48.682;9.030;2024-01-30T00:08:29;3.10;99.90
3954;DHT22;1991;48.682;9.030;2024-01-30T00:10:55;3.10;99.90
3954;DHT22;1991;48.682;9.030;2024-01-30T00:13:20;3.10;99.90
3954;DHT22;1991;48.682;9.030;2024-01-30T00:15:46;3.10;99.90
3954;DHT22;1991;48.682;9.030;2024-01-30T00:18:12;3.10;99.90
3954;DHT22;1991;48.682;9.030;2024-01-30T00:20:37;3.00;99.90
3954;DHT22;1991;48.682;9.030;2024-01-30T00:23:03;3.00;99.90
3954;DHT22;1991;48.682;9.030;2024-01-30T00:25:29;3.00;99.90
3954;DHT22;1991;48.682;9.030;2024-01-30T00:27:54;3.10;99.90
3954;DHT22;1991;48.682;9.030;2024-01-30T00:30:20;3.10;99.90
3954;DHT22;1991;48.682;9.030;2024-01-30T00:32:46;3.20;99.90
3954;DHT22;1991;48.682;9.030;2024-01-30T00:35:11;3.20;99.90
3954;DHT22;1991;48.682;9.030;2024-01-30T00:37:37;3.20;99.90
3954;DHT22;1991;48.682;9.030;2024-01-30T00:40:03;3.30;99.90
3954;DHT22;1991;48.682;9.030;2024-01-30T00:42:29;3.40;99.90
3954;DHT22;1991;48.682;9.030;2024-01-30T00:44:55;3.50;99.90
3954;DHT22;1991;48.682;9.030;2024-01-30T00:47:20;3.50;99.90
3954;DHT22;1991;48.682;9.030;2024-01-30T00:49:46;3.50;99.90
3954;DHT22;1991;48.682;9.030;2024-01-30T00:52:12;3.50;99.90
3954;DHT22;1991;48.682;9.030;2024-01-30T00:54:37;3.50;99.90
3954;DHT22;1991;48.682;9.030;2024-01-30T00:57:03;3.50;99.90
3954;DHT22;1991;48.682;9.030;2024-01-30T00:59:28;3.50;99.90
3954;DHT22;1991;48.682;9.030;2024-01-30T01:01:54;3.50;99.90
3954;DHT22;1991;48.682;9.030;2024-01-30T01:04:20;3.40;99.90
3954;DHT22;1991;48.682;9.030;2024-01-30T01:06:47;3.40;99.90
3954;DHT22;1991;48.682;9.030;2024-01-30T01:09:13;3.40;99.90
3954;DHT22;1991;48.682;9.030;2024-01-30T01:11:38;3.40;99.90
3954;DHT22;1991;48.682;9.030;2024-01-30T01:14:04;3.30;99.90
3954;DHT22;1991;48.682;9.030;2024-01-30T01:16:30;3.40;99.90
3954;DHT22;1991;48.682;9.030;2024-01-30T01:18:56;3.30;99.90
3954;DHT22;1991;48.682;9.030;2024-01-30T01:21:21;3.30;99.90
3954;DHT22;1991;48.682;9.030;2024-01-30T01:23:48;3.30;99.90
3954;DHT22;1991;48.682;9.030;2024-01-30T01:26:14;3.30;99.90
3954;DHT22;1991;48.682;9.030;2024-01-30T01:28:40;3.30;99.90
3954;DHT22;1991;48.682;9.030;2024-01-30T01:31:06;3.30;99.90
3954;DHT22;1991;48.682;9.030;2024-01-30T01:33:33;3.20;99.90
3954;DHT22;1991;48.682;9.030;2024-01-30T01:35:59;3.20;99.90
3954;DHT22;1991;48.682;9.030;2024-01-30T01:38:25;3.10;99.90
3954;DHT22;1991;48.682;9.030;2024-01-30T01:40:51;3.10;99.90
3954;DHT22;1991;48.682;9.030;2024-01-30T01:43:16;3.00;99.90
3954;DHT22;1991;48.682;9.030;2024-01-30T01:45:42;2.90;99.90
3954;DHT22;1991;48.682;9.030;2024-01-30T01:48:08;2.80;99.90
3954;DHT22;1991;48.682;9.030;2024-01-30T01:50:34;2.80;99.90
3954;DHT22;1991;48.682;9.030;2024-01-30T01:53:02;2.80;99.90
3954;DHT22;1991;48.682;9.030;2024-01-30T01:55:29;2.80;99.90
3954;DHT22;1991;48.682;9.030;2024-01-30T01:57:56;2.80;99.90
3954;DHT22;1991;48.682;9.030;2024-01-30T02:00:22;2.80;99.90
3954;DHT22;1991;48.682;9.030;2024-01-30T02:02:49;2.80;99.90
3954;DHT22;1991;48.682;9.030;2024-01-30T02:05:16;2.70;99.90
3954;DHT22;1991;48.682;9.030;2024-01-30T02:07:43;2.60;99.90
3954;DHT22;1991;48.682;9.030;2024-01-30T02:10:09;2.60;99.90
3954;DHT22;1991;48.682;9.030;2024-01-30T02:12:37;2.60;99.90
3954;DHT22;1991;48.682;9.030;2024-01-30T02:15:04;2.50;99.90
3954;DHT22;1991;48.682;9.030;2024-01-30T02:17:30;2.50;99.90
3954;DHT22;1991;48.682;9.030;2024-01-30T02:19:56;2.40;99.90
3954;DHT22;1991;48.682;9.030;2024-01-30T02:22:22;2.40;99.90
3954;DHT22;1991;48.682;9.030;2024-01-30T02:24:49;2.40;99.90
3954;DHT22;1991;48.682;9.030;2024-01-30T02:27:15;2.40;99.90
3954;DHT22;1991;48.682;9.030;2024-01-30T02:29:40;2.30;99.90
3954;DHT22;1991;48.682;9.030;2024-01-30T02:32:06;2.40;99.90
3954;DHT22;1991;48.682;9.030;2024-01-30T02:34:33;2.40;99.90
3954;DHT22;1991;48.682;9.030;2024-01-30T02:36:58;2.40;99.90
3954;DHT22;1991;48.682;9.030;2024-01-30T02:39:24;2.30;99.90
3954;DHT22;1991;48.682;9.030;2024-01-30T02:41:49;2.30;99.90
3954;DHT22;1991;48.682;9.030;2024-01-30T02:44:15;2.30;99.90
3954;DHT22;1991;48.682;9.030;2024-01-30T02:46:41;2.30;99.90
3954;DHT22;1991;48.682;9.030;2024-01-30T02:49:06;2.30;99.90
3954;DHT22;1991;48.682;9.030;2024-01-30T02:51:32;2.30;99.90
3954;DHT22;1991;48.682;9.030;2024-01-30T02:53:57;2.30;99.90
3954;DHT22;1991;48.682;9.030;2024-01-30T02:56:23;2.30;99.90
3954;DHT22;1991;48.682;9.030;2024-01-30T02:58:49;2.20;99.90
3954;DHT22;1991;48.682;9.030;2024-01-30T03:01:14;2.10;99.90
3954;DHT22;1991;48.682;9.030;2024-01-30T03:03:40;2.00;99.90
3954;DHT22;1991;48.682;9.030;2024-01-30T03:06:06;2.00;99.90
3954;DHT22;1991;48.682;9.030;2024-01-30T03:08:32;2.00;99.90
3954;DHT22;1991;48.682;9.030;2024-01-30T03:10:58;1.90;99.90
3954;DHT22;1991;48.682;9.030;2024-01-30T03:13:23;1.90;99.90
3954;DHT22;1991;48.682;9.030;2024-01-30T03:15:50;1.90;99.90
3954;DHT22;1991;48.682;9.030;2024-01-30T03:18:16;1.90;99.90
3954;DHT22;1991;48.682;9.030;2024-01-30T03:20:41;1.90;99.90
3954;DHT22;1991;48.682;9.030;2024-01-30T03:23:07;1.80;99.90
3954;DHT22;1991;48.682;9.030;2024-01-30T03:25:32;1.80;99.90
3954;DHT22;1991;48.682;9.030;2024-01-30T03:27:58;1.70;99.90
3954;DHT22;1991;48.682;9.030;2024-01-30T03:30:23;1.70;99.90
3954;DHT22;1991;48.682;9.030;2024-01-30T03:32:49;1.60;99.90
3954;DHT22;1991;48.682;9.030;2024-01-30T03:35:15;1.60;99.90
3954;DHT22;1991;48.682;9.030;2024-01-30T03:37:41;1.60;99.90
3954;DHT22;1991;48.682;9.030;2024-01-30T03:40:07;1.50;99.90
3954;DHT22;1991;48.682;9.030;2024-01-30T03:42:32;1.50;99.90
3954;DHT22;1991;48.682;9.030;2024-01-30T03:44:58;1.50;99.90
3954;DHT22;1991;48.682;9.030;2024-01-30T03:47:24;1.50;99.90
3954;DHT22;1991;48.682;9.030;2024-01-30T03:49:49;1.50;99.90
3954;DHT22;1991;48.682;9.030;2024-01-30T03:52:15;1.40;99.90
3954;DHT22;1991;48.682;9.030;2024-01-30T03:54:40;1.40;99.90
3954;DHT22;1991;48.682;9.030;2024-01-30T03:57:06;1.40;99.90
3954;DHT22;1991;48.682;9.030;2024-01-30T03:59:31;1.40;99.90
3954;DHT22;1991;48.682;9.030;2024-01-30T04:01:57;1.40;99.90
3954;DHT22;1991;48.682;9.030;2024-01-30T04:04:23;1.40;99.90
3954;DHT22;1991;48.682;9.030;2024-01-30T04:06:48;1.40;99.90
3954;DHT22;1991;48.682;9.030;2024-01-30T04:09:14;1.40;99.90
3954;DHT22;1991;48.682;9.030;2024-01-30T04:11:40;1.30;99.90
3954;DHT22;1991;48.682;9.030;2024-01-30T04:14:07;1.30;99.90
3954;DHT22;1991;48.682;9.030;2024-01-30T04:16:32;1.30;99.90
3954;DHT22;1991;48.682;9.030;2024-01-30T04:18:58;1.30;99.90
3954;DHT22;1991;48.682;9.030;2024-01-30T04:21:23;1.30;99.90
3954;DHT22;1991;48.682;9.030;2024-01-30T04:23:50;1.20;99.90
3954;DHT22;1991;48.682;9.030;2024-01-30T04:26:17;1.20;99.90
3954;DHT22;1991;48.682;9.030;2024-01-30T04:28:44;1.20;99.90
3954;DHT22;1991;48.682;9.030;2024-01-30T04:31:10;1.20;99.90
3954;DHT22;1991;48.682;9.030;2024-01-30T04:33:36;1.20;99.90
3954;DHT22;1991;48.682;9.030;2024-01-30T04:36:02;1.20;99.90
3954;DHT22;1991;48.682;9.030;2024-01-30T04:38:28;1.20;99.90
3954;DHT22;1991;48.682;9.030;2024-01-30T04:40:54;1.20;99.90
3954;DHT22;1991;48.682;9.030;2024-01-30T04:43:19;1.20;99.90
3954;DHT22;1991;48.682;9.030;2024-01-30T04:45:45;1.20;99.90
3954;DHT22;1991;48.682;9.030;2024-01-30T04:48:11;1.20;99.90
3954;DHT22;1991;48.682;9.030;2024-01-30T04:50:36;1.10;99.90
3954;DHT22;1991;48.682;9.030;2024-01-30T04:53:02;1.10;99.90
3954;DHT22;1991;48.682;9.030;2024-01-30T04:55:28;1.10;99.90
3954;DHT22;1991;48.682;9.030;2024-01-30T04:57:53;1.10;99.90
3954;DHT22;1991;48.682;9.030;2024-01-30T05:00:19;1.10;99.90
3954;DHT22;1991;48.682;9.030;2024-01-30T05:02:45;1.10;99.90
3954;DHT22;1991;48.682;9.030;2024-01-30T05:05:10;1.10;99.90
3954;DHT22;1991;48.682;9.030;2024-01-30T05:07:36;1.00;99.90
3954;DHT22;1991;48.682;9.030;2024-01-30T05:10:02;1.00;99.90
3954;DHT22;1991;48.682;9.030;2024-01-30T05:12:28;1.00;99.90
3954;DHT22;1991;48.682;9.030;2024-01-30T05:14:54;1.00;99.90
3954;DHT22;1991;48.682;9.030;2024-01-30T05:17:20;1.00;99.90
3954;DHT22;1991;48.682;9.030;2024-01-30T05:19:45;1.00;99.90
3954;DHT22;1991;48.682;9.030;2024-01-30T05:22:11;1.00;99.90
3954;DHT22;1991;48.682;9.030;2024-01-30T05:24:41;1.00;99.90
3954;DHT22;1991;48.682;9.030;2024-01-30T05:27:07;1.00;99.90
3954;DHT22;1991;48.682;9.030;2024-01-30T05:29:33;1.00;99.90
3954;DHT22;1991;48.682;9.030;2024-01-30T05:31:58;1.00;99.90
3954;DHT22;1991;48.682;9.030;2024-01-30T05:34:24;1.00;99.90
3954;DHT22;1991;48.682;9.030;2024-01-30T05:36:50;1.00;99.90
3954;DHT22;1991;48.682;9.030;2024-01-30T05:39:15;0.90;99.90
3954;DHT22;1991;48.682;9.030;2024-01-30T05:41:41;0.90;99.90
3954;DHT22;1991;48.682;9.030;2024-01-30T05:44:06;1.00;99.90
3954;DHT22;1991;48.682;9.030;2024-01-30T05:46:33;0.90;99.90
3954;DHT22;1991;48.682;9.030;2024-01-30T05:48:59;1.00;99.90
3954;DHT22;1991;48.682;9.030;2024-01-30T05:51:24;1.00;99.90
3954;DHT22;1991;48.682;9.030;2024-01-30T05:53:50;1.00;99.90
3954;DHT22;1991;48.682;9.030;2024-01-30T05:56:15;1.00;99.90
3954;DHT22;1991;48.682;9.030;2024-01-30T05:58:41;1.00;99.90
3954;DHT22;1991;48.682;9.030;2024-01-30T06:01:08;1.00;99.90
3954;DHT22;1991;48.682;9.030;2024-01-30T06:03:34;1.00;99.90
3954;DHT22;1991;48.682;9.030;2024-01-30T06:06:00;1.00;99.90
3954;DHT22;1991;48.682;9.030;2024-01-30T06:08:25;0.90;99.90
3954;DHT22;1991;48.682;9.030;2024-01-30T06:10:51;0.90;99.90
3954;DHT22;1991;48.682;9.030;2024-01-30T06:13:16;0.90;99.90
3954;DHT22;1991;48.682;9.030;2024-01-30T06:15:42;0.90;99.90
3954;DHT22;1991;48.682;9.030;2024-01-30T06:18:08;0.90;99.90
3954;DHT22;1991;48.682;9.030;2024-01-30T06:20:34;0.90;99.90
3954;DHT22;1991;48.682;9.030;2024-01-30T06:22:59;0.90;99.90
3954;DHT22;1991;48.682;9.030;2024-01-30T06:25:25;0.80;99.90
3954;DHT22;1991;48.682;9.030;2024-01-30T06:27:50;0.80;99.90
3954;DHT22;1991;48.682;9.030;2024-01-30T06:30:16;0.80;99.90
3954;DHT22;1991;48.682;9.030;2024-01-30T06:32:42;0.80;99.90
3954;DHT22;1991;48.682;9.030;2024-01-30T06:35:07;0.90;99.90
3954;DHT22;1991;48.682;9.030;2024-01-30T06:37:33;0.90;99.90
3954;DHT22;1991;48.682;9.030;2024-01-30T06:39:59;0.80;99.90
3954;DHT22;1991;48.682;9.030;2024-01-30T06:42:24;0.80;99.90
3954;DHT22;1991;48.682;9.030;2024-01-30T06:44:50;0.80;99.90
3954;DHT22;1991;48.682;9.030;2024-01-30T06:47:15;0.80;99.90
3954;DHT22;1991;48.682;9.030;2024-01-30T06:49:41;0.90;99.90
3954;DHT22;1991;48.682;9.030;2024-01-30T06:52:08;0.90;99.90
3954;DHT22;1991;48.682;9.030;2024-01-30T06:54:33;0.90;99.90
3954;DHT22;1991;48.682;9.030;2024-01-30T06:56:59;1.00;99.90
3954;DHT22;1991;48.682;9.030;2024-01-30T06:59:25;1.00;99.90
3954;DHT22;1991;48.682;9.030;2024-01-30T07:01:51;1.00;99.90
3954;DHT22;1991;48.682;9.030;2024-01-30T07:04:16;1.00;99.90
3954;DHT22;1991;48.682;9.030;2024-01-30T07:06:43;1.10;99.90
3954;DHT22;1991;48.682;9.030;2024-01-30T07:09:09;1.10;99.90
3954;DHT22;1991;48.682;9.030;2024-01-30T07:11:34;1.20;99.90
3954;DHT22;1991;48.682;9.030;2024-01-30T07:14:00;1.30;99.90
3954;DHT22;1991;48.682;9.030;2024-01-30T07:16:29;1.30;99.90
3954;DHT22;1991;48.682;9.030;2024-01-30T07:18:54;1.30;99.90
3954;DHT22;1991;48.682;9.030;2024-01-30T07:21:21;1.30;99.90
3954;DHT22;1991;48.682;9.030;2024-01-30T07:23:50;1.40;99.90
3954;DHT22;1991;48.682;9.030;2024-01-30T07:26:16;1.40;99.90
3954;DHT22;1991;48.682;9.030;2024-01-30T07:28:41;1.50;99.90
3954;DHT22;1991;48.682;9.030;2024-01-30T07:31:07;1.60;99.90
3954;DHT22;1991;48.682;9.030;2024-01-30T07:33:32;1.70;99.90
3954;DHT22;1991;48.682;9.030;2024-01-30T07:35:58;1.80;99.90
3954;DHT22;1991;48.682;9.030;2024-01-30T07:38:23;2.00;99.90
3954;DHT22;1991;48.682;9.030;2024-01-30T07:40:49;2.20;99.90
3954;DHT22;1991;48.682;9.030;2024-01-30T07:43:15;2.20;99.90
3954;DHT22;1991;48.682;9.030;2024-01-30T07:45:40;2.30;99.90
3954;DHT22;1991;48.682;9.030;2024-01-30T07:48:06;2.50;99.90
3954;DHT22;1991;48.682;9.030;2024-01-30T07:50:32;2.60;99.90
3954;DHT22;1991;48.682;9.030;2024-01-30T07:53:00;2.90;99.90
3954;DHT22;1991;48.682;9.030;2024-01-30T07:55:25;3.20;99.90
3954;DHT22;1991;48.682;9.030;2024-01-30T07:57:54;3.50;99.90
3954;DHT22;1991;48.682;9.030;2024-01-30T08:00:21;3.70;99.90
3954;DHT22;1991;48.682;9.030;2024-01-30T08:02:47;4.10;99.90
3954;DHT22;1991;48.682;9.030;2024-01-30T08:05:13;4.30;99.90
3954;DHT22;1991;48.682;9.030;2024-01-30T08:07:41;4.60;99.90
3954;DHT22;1991;48.682;9.030;2024-01-30T08:10:07;4.90;99.90
3954;DHT22;1991;48.682;9.030;2024-01-30T08:12:33;5.30;99.90
3954;DHT22;1991;48.682;9.030;2024-01-30T08:14:58;5.60;99.90
3954;DHT22;1991;48.682;9.030;2024-01-30T08:17:24;5.90;99.90
3954;DHT22;1991;48.682;9.030;2024-01-30T08:19:49;6.30;99.90
3954;DHT22;1991;48.682;9.030;2024-01-30T08:22:15;6.70;99.90
3954;DHT22;1991;48.682;9.030;2024-01-30T08:24:41;7.10;99.90
3954;DHT22;1991;48.682;9.030;2024-01-30T08:27:07;7.40;99.90
3954;DHT22;1991;48.682;9.030;2024-01-30T08:29:35;7.80;99.90
3954;DHT22;1991;48.682;9.030;2024-01-30T08:32:01;8.40;99.90
3954;DHT22;1991;48.682;9.030;2024-01-30T08:34:26;9.30;99.90
3954;DHT22;1991;48.682;9.030;2024-01-30T08:36:52;10.50;99.10
3954;DHT22;1991;48.682;9.030;2024-01-30T08:39:18;10.70;95.40
3954;DHT22;1991;48.682;9.030;2024-01-30T08:41:44;10.50;94.10
3954;DHT22;1991;48.682;9.030;2024-01-30T08:44:09;10.40;93.50
3954;DHT22;1991;48.682;9.030;2024-01-30T08:46:36;10.00;92.60
3954;DHT22;1991;48.682;9.030;2024-01-30T08:49:02;9.90;92.70
3954;DHT22;1991;48.682;9.030;2024-01-30T08:51:29;10.20;92.30
3954;DHT22;1991;48.682;9.030;2024-01-30T08:53:55;10.30;91.40
3954;DHT22;1991;48.682;9.030;2024-01-30T08:56:21;10.50;90.50
3954;DHT22;1991;48.682;9.030;2024-01-30T08:58:46;11.00;90.20
3954;DHT22;1991;48.682;9.030;2024-01-30T09:01:12;12.00;87.80
3954;DHT22;1991;48.682;9.030;2024-01-30T09:03:37;13.20;82.10
3954;DHT22;1991;48.682;9.030;2024-01-30T09:06:11;13.80;77.20
3954;DHT22;1991;48.682;9.030;2024-01-30T09:08:37;14.30;73.80
3954;DHT22;1991;48.682;9.030;2024-01-30T09:11:12;14.60;71.60
3954;DHT22;1991;48.682;9.030;2024-01-30T09:13:37;15.20;68.60
3954;DHT22;1991;48.682;9.030;2024-01-30T09:16:03;15.60;67.10
3954;DHT22;1991;48.682;9.030;2024-01-30T09:18:29;15.70;65.30
3954;DHT22;1991;48.682;9.030;2024-01-30T09:20:55;15.70;65.90
3954;DHT22;1991;48.682;9.030;2024-01-30T09:23:20;17.00;64.10
3954;DHT22;1991;48.682;9.030;2024-01-30T09:25:47;18.20;60.50
3954;DHT22;1991;48.682;9.030;2024-01-30T09:28:13;17.90;58.90
3954;DHT22;1991;48.682;9.030;2024-01-30T09:30:38;17.00;59.60
3954;DHT22;1991;48.682;9.030;2024-01-30T09:33:04;16.20;60.40
3954;DHT22;1991;48.682;9.030;2024-01-30T09:35:30;15.70;62.10
3954;DHT22;1991;48.682;9.030;2024-01-30T09:37:55;15.30;60.10
3954;DHT22;1991;48.682;9.030;2024-01-30T09:40:22;15.40;57.50
3954;DHT22;1991;48.682;9.030;2024-01-30T09:42:50;15.70;57.50
3954;DHT22;1991;48.682;9.030;2024-01-30T09:45:18;16.00;58.50
3954;DHT22;1991;48.682;9.030;2024-01-30T09:47:45;16.20;57.00
3954;DHT22;1991;48.682;9.030;2024-01-30T09:50:12;16.50;57.20
3954;DHT22;1991;48.682;9.030;2024-01-30T09:52:39;15.90;57.20
3954;DHT22;1991;48.682;9.030;2024-01-30T09:55:06;15.30;58.20
3954;DHT22;1991;48.682;9.030;2024-01-30T09:57:32;15.20;59.60
3954;DHT22;1991;48.682;9.030;2024-01-30T09:59:57;14.80;58.80
3954;DHT22;1991;48.682;9.030;2024-01-30T10:02:23;14.70;58.50
3954;DHT22;1991;48.682;9.030;2024-01-30T10:04:50;14.50;60.60
3954;DHT22;1991;48.682;9.030;2024-01-30T10:07:16;14.40;60.40
3954;DHT22;1991;48.682;9.030;2024-01-30T10:09:42;14.60;59.80
3954;DHT22;1991;48.682;9.030;2024-01-30T10:12:11;15.00;60.20
3954;DHT22;1991;48.682;9.030;2024-01-30T10:14:41;15.30;59.00
3954;DHT22;1991;48.682;9.030;2024-01-30T10:17:10;15.20;58.50
3954;DHT22;1991;48.682;9.030;2024-01-30T10:19:37;15.10;57.30
3954;DHT22;1991;48.682;9.030;2024-01-30T10:22:06;15.10;57.20
3954;DHT22;1991;48.682;9.030;2024-01-30T10:24:33;15.00;57.40
3954;DHT22;1991;48.682;9.030;2024-01-30T10:26:59;14.80;57.40
3954;DHT22;1991;48.682;9.030;2024-01-30T10:29:25;14.80;58.40
3954;DHT22;1991;48.682;9.030;2024-01-30T10:32:04;14.60;59.80
3954;DHT22;1991;48.682;9.030;2024-01-30T10:34:30;14.70;59.90
3954;DHT22;1991;48.682;9.030;2024-01-30T10:37:03;15.00;60.10
3954;DHT22;1991;48.682;9.030;2024-01-30T10:39:36;15.30;58.60
3954;DHT22;1991;48.682;9.030;2024-01-30T10:42:05;15.40;58.90
3954;DHT22;1991;48.682;9.030;2024-01-30T10:44:37;15.90;58.00
3954;DHT22;1991;48.682;9.030;2024-01-30T10:47:07;16.10;55.50
3954;DHT22;1991;48.682;9.030;2024-01-30T10:49:35;16.20;55.50
3954;DHT22;1991;48.682;9.030;2024-01-30T10:52:02;16.80;54.80
3954;DHT22;1991;48.682;9.030;2024-01-30T10:54:29;17.30;54.00
3954;DHT22;1991;48.682;9.030;2024-01-30T10:56:56;18.10;53.30
3954;DHT22;1991;48.682;9.030;2024-01-30T10:59:23;18.80;51.30
3954;DHT22;1991;48.682;9.030;2024-01-30T11:01:50;18.90;50.50
3954;DHT22;1991;48.682;9.030;2024-01-30T11:04:16;18.90;50.30
3954;DHT22;1991;48.682;9.030;2024-01-30T11:06:42;18.60;50.40
3954;DHT22;1991;48.682;9.030;2024-01-30T11:09:11;18.50;50.30
3954;DHT22;1991;48.682;9.030;2024-01-30T11:11:58;18.20;50.40
3954;DHT22;1991;48.682;9.030;2024-01-30T11:14:28;17.80;51.30
3954;DHT22;1991;48.682;9.030;2024-01-30T11:16:57;17.40;51.60
3954;DHT22;1991;48.682;9.030;2024-01-30T11:19:24;17.40;52.20
3954;DHT22;1991;48.682;9.030;2024-01-30T11:21:54;17.70;51.60
3954;DHT22;1991;48.682;9.030;2024-01-30T11:24:22;17.30;52.20
3954;DHT22;1991;48.682;9.030;2024-01-30T11:27:01;17.00;52.60
3954;DHT22;1991;48.682;9.030;2024-01-30T11:29:28;16.80;53.30
3954;DHT22;1991;48.682;9.030;2024-01-30T11:31:55;16.60;53.90
3954;DHT22;1991;48.682;9.030;2024-01-30T11:34:21;16.60;54.00
3954;DHT22;1991;48.682;9.030;2024-01-30T11:36:59;16.60;54.20
3954;DHT22;1991;48.682;9.030;2024-01-30T11:39:27;16.60;54.00
3954;DHT22;1991;48.682;9.030;2024-01-30T11:41:55;16.70;53.90
3954;DHT22;1991;48.682;9.030;2024-01-30T11:44:21;16.70;53.60
3954;DHT22;1991;48.682;9.030;2024-01-30T11:46:48;16.80;54.10
3954;DHT22;1991;48.682;9.030;2024-01-30T11:49:14;16.70;53.50
3954;DHT22;1991;48.682;9.030;2024-01-30T11:51:41;16.50;54.10
3954;DHT22;1991;48.682;9.030;2024-01-30T11:54:07;16.20;55.10
3954;DHT22;1991;48.682;9.030;2024-01-30T11:56:33;15.70;55.30
3954;DHT22;1991;48.682;9.030;2024-01-30T11:58:59;15.50;56.10
3954;DHT22;1991;48.682;9.030;2024-01-30T12:01:26;15.40;56.60
3954;DHT22;1991;48.682;9.030;2024-01-30T12:03:52;15.40;56.70
3954;DHT22;1991;48.682;9.030;2024-01-30T12:06:18;15.40;56.90
3954;DHT22;1991;48.682;9.030;2024-01-30T12:09:01;15.70;56.70
3954;DHT22;1991;48.682;9.030;2024-01-30T12:11:27;15.80;56.30
3954;DHT22;1991;48.682;9.030;2024-01-30T12:13:55;15.90;55.60
3954;DHT22;1991;48.682;9.030;2024-01-30T12:16:22;16.20;55.40
3954;DHT22;1991;48.682;9.030;2024-01-30T12:18:48;16.40;54.70
3954;DHT22;1991;48.682;9.030;2024-01-30T12:21:16;16.60;54.50
3954;DHT22;1991;48.682;9.030;2024-01-30T12:23:43;16.80;54.30
3954;DHT22;1991;48.682;9.030;2024-01-30T12:26:09;17.00;54.20
3954;DHT22;1991;48.682;9.030;2024-01-30T12:28:35;17.50;53.20
3954;DHT22;1991;48.682;9.030;2024-01-30T12:31:03;17.90;52.60
3954;DHT22;1991;48.682;9.030;2024-01-30T12:33:30;19.10;51.30
3954;DHT22;1991;48.682;9.030;2024-01-30T12:35:56;20.20;49.10
3954;DHT22;1991;48.682;9.030;2024-01-30T12:38:23;20.60;47.60
3954;DHT22;1991;48.682;9.030;2024-01-30T12:40:49;20.80;47.20
3954;DHT22;1991;48.682;9.030;2024-01-30T12:43:15;20.60;47.60
3954;DHT22;1991;48.682;9.030;2024-01-30T12:45:41;20.70;46.90
3954;DHT22;1991;48.682;9.030;2024-01-30T12:48:08;20.80;47.10
3954;DHT22;1991;48.682;9.030;2024-01-30T12:50:34;20.70;46.90
3954;DHT22;1991;48.682;9.030;2024-01-30T12:52:59;21.30;46.10
3954;DHT22;1991;48.682;9.030;2024-01-30T12:55:25;22.20;45.90
3954;DHT22;1991;48.682;9.030;2024-01-30T12:57:54;24.20;43.20
3954;DHT22;1991;48.682;9.030;2024-01-30T13:00:20;26.00;41.30
3954;DHT22;1991;48.682;9.030;2024-01-30T13:02:45;27.60;39.80
3954;DHT22;1991;48.682;9.030;2024-01-30T13:05:11;28.40;38.00
3954;DHT22;1991;48.682;9.030;2024-01-30T13:07:36;29.10;37.20
3954;DHT22;1991;48.682;9.030;2024-01-30T13:10:02;31.10;36.50
3954;DHT22;1991;48.682;9.030;2024-01-30T13:12:29;31.40;34.70
3954;DHT22;1991;48.682;9.030;2024-01-30T13:14:55;30.30;34.50
3954;DHT22;1991;48.682;9.030;2024-01-30T13:17:21;29.20;34.70
3954;DHT22;1991;48.682;9.030;2024-01-30T13:19:46;27.50;35.50
3954;DHT22;1991;48.682;9.030;2024-01-30T13:22:14;25.70;37.40
3954;DHT22;1991;48.682;9.030;2024-01-30T13:24:40;24.50;38.30
3954;DHT22;1991;48.682;9.030;2024-01-30T13:27:06;23.60;39.30
3954;DHT22;1991;48.682;9.030;2024-01-30T13:29:32;23.10;39.90
3954;DHT22;1991;48.682;9.030;2024-01-30T13:31:58;22.60;41.40
3954;DHT22;1991;48.682;9.030;2024-01-30T13:34:23;22.40;41.10
3954;DHT22;1991;48.682;9.030;2024-01-30T13:36:50;22.70;41.60
3954;DHT22;1991;48.682;9.030;2024-01-30T13:39:16;24.00;40.90
3954;DHT22;1991;48.682;9.030;2024-01-30T13:41:42;25.40;39.30
3954;DHT22;1991;48.682;9.030;2024-01-30T13:44:08;26.60;37.40
3954;DHT22;1991;48.682;9.030;2024-01-30T13:46:34;25.00;37.30
3954;DHT22;1991;48.682;9.030;2024-01-30T13:49:00;23.20;39.40
3954;DHT22;1991;48.682;9.030;2024-01-30T13:51:26;21.70;41.30
3954;DHT22;1991;48.682;9.030;2024-01-30T13:53:51;20.90;42.90
3954;DHT22;1991;48.682;9.030;2024-01-30T13:56:17;20.10;44.90
3954;DHT22;1991;48.682;9.030;2024-01-30T13:58:42;19.50;45.60
3954;DHT22;1991;48.682;9.030;2024-01-30T14:01:08;19.30;46.30
3954;DHT22;1991;48.682;9.030;2024-01-30T14:03:35;19.30;46.00
3954;DHT22;1991;48.682;9.030;2024-01-30T14:06:01;19.20;45.90
3954;DHT22;1991;48.682;9.030;2024-01-30T14:39:57;17.20;50.70
3954;DHT22;1991;48.682;9.030;2024-01-30T14:42:23;16.70;51.90
3954;DHT22;1991;48.682;9.030;2024-01-30T14:44:48;16.40;52.40
3954;DHT22;1991;48.682;9.030;2024-01-30T14:47:14;15.90;53.30
3954;DHT22;1991;48.682;9.030;2024-01-30T14:49:40;15.60;54.20
3954;DHT22;1991;48.682;9.030;2024-01-30T14:52:05;15.20;55.40
3954;DHT22;1991;48.682;9.030;2024-01-30T14:54:31;14.80;56.40
3954;DHT22;1991;48.682;9.030;2024-01-30T14:56:57;14.60;57.30
3954;DHT22;1991;48.682;9.030;2024-01-30T14:59:24;14.30;57.90
3954;DHT22;1991;48.682;9.030;2024-01-30T15:01:50;14.20;58.80
3954;DHT22;1991;48.682;9.030;2024-01-30T15:04:16;13.90;59.50
3954;DHT22;1991;48.682;9.030;2024-01-30T15:06:41;13.80;60.00
3954;DHT22;1991;48.682;9.030;2024-01-30T15:09:14;13.70;60.40
3954;DHT22;1991;48.682;9.030;2024-01-30T15:11:41;13.60;61.00
3954;DHT22;1991;48.682;9.030;2024-01-30T15:14:07;13.50;61.30
3954;DHT22;1991;48.682;9.030;2024-01-30T15:16:32;13.30;61.80
3954;DHT22;1991;48.682;9.030;2024-01-30T15:18:58;13.20;62.60
3954;DHT22;1991;48.682;9.030;2024-01-30T15:21:23;13.10;63.30
3954;DHT22;1991;48.682;9.030;2024-01-30T15:23:49;12.90;63.80
3954;DHT22;1991;48.682;9.030;2024-01-30T15:26:15;12.80;64.30
3954;DHT22;1991;48.682;9.030;2024-01-30T15:28:41;12.70;65.00
3954;DHT22;1991;48.682;9.030;2024-01-30T15:31:07;12.50;66.30
3954;DHT22;1991;48.682;9.030;2024-01-30T15:33:33;12.30;66.90
3954;DHT22;1991;48.682;9.030;2024-01-30T15:36:01;12.20;67.80
3954;DHT22;1991;48.682;9.030;2024-01-30T15:38:27;12.10;69.20
3954;DHT22;1991;48.682;9.030;2024-01-30T15:40:53;12.00;70.00
3954;DHT22;1991;48.682;9.030;2024-01-30T15:43:18;11.80;71.20
3954;DHT22;1991;48.682;9.030;2024-01-30T15:45:44;11.60;73.20
3954;DHT22;1991;48.682;9.030;2024-01-30T15:48:09;11.50;74.40
3954;DHT22;1991;48.682;9.030;2024-01-30T15:50:35;11.40;75.50
3954;DHT22;1991;48.682;9.030;2024-01-30T15:53:01;11.30;76.10
3954;DHT22;1991;48.682;9.030;2024-01-30T15:55:26;11.20;76.30
3954;DHT22;1991;48.682;9.030;2024-01-30T15:57:52;11.20;77.40
3954;DHT22;1991;48.682;9.030;2024-01-30T16:00:17;11.10;77.80
3954;DHT22;1991;48.682;9.030;2024-01-30T16:02:43;11.10;78.50
3954;DHT22;1991;48.682;9.030;2024-01-30T16:05:09;10.90;80.10
3954;DHT22;1991;48.682;9.030;2024-01-30T16:07:35;10.80;81.70
3954;DHT22;1991;48.682;9.030;2024-01-30T16:10:00;10.60;82.90
3954;DHT22;1991;48.682;9.030;2024-01-30T16:12:26;10.50;84.50
3954;DHT22;1991;48.682;9.030;2024-01-30T16:14:52;10.40;85.80
3954;DHT22;1991;48.682;9.030;2024-01-30T16:17:17;10.30;87.00
3954;DHT22;1991;48.682;9.030;2024-01-30T16:19:43;10.30;88.60
3954;DHT22;1991;48.682;9.030;2024-01-30T16:22:09;10.20;89.70
3954;DHT22;1991;48.682;9.030;2024-01-30T16:24:35;10.10;90.60
3954;DHT22;1991;48.682;9.030;2024-01-30T16:27:00;10.10;91.30
3954;DHT22;1991;48.682;9.030;2024-01-30T16:29:26;10.00;91.80
3954;DHT22;1991;48.682;9.030;2024-01-30T16:31:52;10.00;92.70
3954;DHT22;1991;48.682;9.030;2024-01-30T16:34:17;9.90;93.20